Time;durP1;ratioP1;P1;durP2;ratioP2;P2;SDS_P1;SDS_P2;PMS_P1;PMS_P2;Temp;Humidity;BMP_temperature;BMP_pressure;BME280_temperature;BME280_humidity;BME280_pressure;Samples;Min_cycle;Max_cycle;Signal;HPM_P1;HPM_P2
2023/01/27 00:01:20;;;;;;;30.60;14.43;;;;;;;5.43;50.46;98647.81;4359301;32;20134;-81
2023/01/27 00:03:55;;;;;;;32.88;14.32;;;;;;;5.52;50.60;98644.84;4385799;32;20111;-78
2023/01/27 00:06:20;;;;;;;29.50;14.15;;;;;;;5.49;50.77;98648.44;4364575;32;20114;-84
2023/01/27 00:08:58;;;;;;;28.42;13.45;;;;;;;5.49;50.74;98643.22;4388575;32;20095;-79
2023/01/27 00:14:19;;;;;;;28.55;13.32;;;;;;;5.07;51.76;98640.34;4362466;32;20497;-80
2023/01/27 00:16:44;;;;;;;30.10;14.10;;;;;;;5.34;51.27;98635.06;4349621;32;20107;-80
2023/01/27 00:19:10;;;;;;;27.40;13.68;;;;;;;5.16;51.41;98644.37;4387546;32;20145;-80
2023/01/27 00:24:37;;;;;;;31.12;14.13;;;;;;;5.04;51.75;98641.31;4384139;32;20469;-79
2023/01/27 00:27:08;;;;;;;32.15;14.10;;;;;;;5.31;51.42;98636.91;4387682;32;20401;-79
2023/01/27 00:29:38;;;;;;;32.00;14.87;;;;;;;5.10;51.72;98640.25;4375781;32;20086;-80
2023/01/27 00:34:51;;;;;;;32.22;14.40;;;;;;;5.12;52.00;98641.91;4364533;32;20165;-81
2023/01/27 00:37:19;;;;;;;29.20;13.25;;;;;;;4.90;52.71;98633.94;4388523;32;20103;-81
2023/01/27 00:39:45;;;;;;;31.37;13.95;;;;;;;4.99;52.41;98638.00;4363486;32;20550;-81
2023/01/27 00:42:11;;;;;;;28.95;13.50;;;;;;;5.20;51.99;98641.63;4375696;32;20111;-81
2023/01/27 00:45:47;;;;;;;31.73;15.02;;;;;;;5.33;51.83;98636.81;4388232;32;20467;-81
2023/01/27 00:47:24;;;;;;;32.03;13.77;;;;;;;5.32;51.88;98629.91;4364644;32;20086;-80
2023/01/27 00:49:54;;;;;;;29.10;13.45;;;;;;;5.33;52.07;98628.97;4363264;32;20133;-80
2023/01/27 00:52:26;;;;;;;27.95;13.88;;;;;;;5.37;52.02;98632.34;4363382;32;20129;-81
2023/01/27 00:54:56;;;;;;;30.05;15.27;;;;;;;5.38;51.81;98629.69;4364478;32;20444;-81
2023/01/27 00:57:22;;;;;;;27.67;13.75;;;;;;;5.35;52.20;98626.31;4387386;32;20133;-80
2023/01/27 00:59:48;;;;;;;32.17;14.05;;;;;;;5.16;52.59;98634.81;4362049;32;20154;-81
2023/01/27 01:02:15;;;;;;;30.00;13.60;;;;;;;5.30;51.93;98634.34;4363036;32;20102;-80
2023/01/27 01:04:41;;;;;;;28.40;12.75;;;;;;;5.46;51.49;98632.84;4388174;32;20145;-81
2023/01/27 01:07:09;;;;;;;29.75;14.20;;;;;;;5.37;51.46;98625.38;4388133;32;20125;-81
2023/01/27 01:09:36;;;;;;;28.52;12.85;;;;;;;5.20;51.47;98630.34;4387893;32;20087;-80
2023/01/27 01:12:02;;;;;;;27.08;13.43;;;;;;;5.42;51.31;98633.88;4375474;32;20214;-81
2023/01/27 01:14:32;;;;;;;32.05;14.63;;;;;;;5.45;51.03;98628.56;4375298;32;20126;-80
2023/01/27 01:16:58;;;;;;;29.42;13.45;;;;;;;5.55;50.98;98630.84;4364552;32;20113;-80
2023/01/27 01:19:23;;;;;;;27.92;12.73;;;;;;;5.60;49.84;98627.16;4350696;32;20099;-81
2023/01/27 01:21:49;;;;;;;27.15;12.90;;;;;;;5.43;50.30;98626.91;4351028;32;20432;-81
2023/01/27 01:24:15;;;;;;;26.65;12.45;;;;;;;5.18;50.51;98625.19;4364347;32;20121;-81
2023/01/27 01:26:40;;;;;;;32.17;14.20;;;;;;;5.10;50.63;98627.22;4364232;32;20096;-80
2023/01/27 01:29:10;;;;;;;27.58;12.77;;;;;;;5.22;50.78;98626.75;4364189;32;20091;-81
2023/01/27 01:31:37;;;;;;;27.52;12.40;;;;;;;5.30;50.74;98623.88;4364366;32;20502;-81
2023/01/27 01:34:06;;;;;;;26.37;12.35;;;;;;;4.81;51.09;98628.19;4387883;32;20111;-81
2023/01/27 01:36:34;;;;;;;25.02;11.48;;;;;;;5.04;50.67;98630.00;4364277;32;20099;-81
2023/01/27 01:39:00;;;;;;;28.05;11.90;;;;;;;5.19;50.70;98618.19;4375379;32;20112;-80
2023/01/27 01:41:29;;;;;;;27.02;12.10;;;;;;;4.91;50.73;98621.75;4387802;32;20099;-80
2023/01/27 01:43:55;;;;;;;22.48;10.60;;;;;;;4.89;50.79;98623.56;4364264;32;20123;-79
2023/01/27 01:46:20;;;;;;;26.50;11.30;;;;;;;4.91;51.20;98621.75;4364192;32;20117;-79
2023/01/27 01:48:55;;;;;;;24.65;10.63;;;;;;;4.94;50.92;98619.03;4350453;32;20121;-79
2023/01/27 01:51:31;;;;;;;25.37;10.85;;;;;;;4.86;50.99;98616.69;4375298;32;20099;-79
2023/01/27 01:54:02;;;;;;;22.37;9.63;;;;;;;4.39;51.63;98620.87;4364006;32;20138;-81
2023/01/27 01:56:52;;;;;;;23.87;10.68;;;;;;;4.59;51.11;98623.69;4387792;32;20098;-80
2023/01/27 01:59:58;;;;;;;21.45;9.25;;;;;;;4.79;50.69;98619.56;4363822;32;20117;-81
2023/01/27 02:02:33;;;;;;;23.08;9.90;;;;;;;4.61;50.63;98627.09;4387128;32;20459;-81
2023/01/27 02:05:23;;;;;;;20.37;8.60;;;;;;;4.40;50.31;98620.81;4364045;32;20122;-81
2023/01/27 02:08:05;;;;;;;21.60;8.85;;;;;;;4.80;49.83;98619.50;4387649;32;20110;-81
2023/01/27 02:10:34;;;;;;;19.92;8.63;;;;;;;4.62;49.58;98609.72;4387286;32;20113;-81
2023/01/27 02:13:01;;;;;;;20.55;8.48;;;;;;;4.54;49.11;98612.56;4387129;32;20533;-81
2023/01/27 02:15:28;;;;;;;18.25;8.32;;;;;;;4.25;49.48;98608.25;4362420;32;20096;-81
2023/01/27 02:17:53;;;;;;;20.33;8.90;;;;;;;4.48;49.36;98603.19;4374950;32;20195;-81
2023/01/27 02:20:48;;;;;;;21.10;8.68;;;;;;;4.36;49.36;98603.56;4363620;32;20079;-81
2023/01/27 02:23:32;;;;;;;21.00;7.97;;;;;;;4.51;48.91;98590.03;4374894;32;20515;-81
2023/01/27 02:26:13;;;;;;;20.98;8.65;;;;;;;4.37;49.72;98589.63;4363588;32;20099;-80
2023/01/27 02:28:42;;;;;;;17.90;8.30;;;;;;;4.40;49.22;98591.28;4363649;32;20103;-81
2023/01/27 02:31:08;;;;;;;18.55;8.15;;;;;;;3.83;50.54;98600.91;4363548;32;20114;-81
2023/01/27 02:33:38;;;;;;;19.30;7.95;;;;;;;4.05;49.92;98601.09;4363433;32;20154;-81
2023/01/27 02:36:17;;;;;;;21.62;8.07;;;;;;;4.08;49.45;98585.34;4385834;32;20160;-81
2023/01/27 02:38:49;;;;;;;18.48;8.02;;;;;;;4.25;49.43;98588.28;4386617;32;20083;-81
2023/01/27 02:41:19;;;;;;;18.77;8.25;;;;;;;4.30;48.83;98580.31;4361863;32;20106;-81
2023/01/27 02:43:48;;;;;;;17.10;7.32;;;;;;;4.44;48.55;98575.50;4363471;32;20084;-81
2023/01/27 02:46:19;;;;;;;19.83;7.70;;;;;;;4.45;48.63;98568.53;4387101;32;20479;-81
2023/01/27 02:48:49;;;;;;;18.05;7.28;;;;;;;4.33;48.95;98562.81;4363311;32;20155;-81
2023/01/27 02:51:17;;;;;;;17.90;7.45;;;;;;;3.98;49.23;98566.56;4361900;32;20103;-81
2023/01/27 02:53:44;;;;;;;20.92;8.60;;;;;;;3.86;49.64;98554.75;4386858;32;20107;-81
2023/01/27 02:56:09;;;;;;;19.73;8.02;;;;;;;3.86;49.96;98564.31;4387023;32;20103;-81
2023/01/27 02:58:35;;;;;;;18.95;7.87;;;;;;;4.14;49.39;98559.94;4363090;32;20481;-78
2023/01/27 03:01:00;;;;;;;21.67;8.23;;;;;;;3.86;49.35;98559.09;4363158;32;20075;-79
2023/01/27 03:03:26;;;;;;;17.40;7.78;;;;;;;3.76;50.12;98562.91;4363167;32;20158;-79
2023/01/27 03:05:51;;;;;;;21.40;8.32;;;;;;;3.61;50.39;98553.78;4363156;32;20122;-79
2023/01/27 03:08:18;;;;;;;19.90;7.65;;;;;;;3.46;50.95;98557.72;4363041;32;20143;-79
2023/01/27 03:10:43;;;;;;;19.52;7.87;;;;;;;3.51;51.04;98554.06;4362921;32;20113;-79
2023/01/27 03:13:09;;;;;;;21.27;8.02;;;;;;;3.58;50.88;98549.53;4362915;32;20107;-79
2023/01/27 03:18:20;;;;;;;20.30;8.43;;;;;;;3.20;51.50;98543.69;4362924;32;20565;-79
2023/01/27 03:20:46;;;;;;;20.58;8.18;;;;;;;3.12;52.31;98556.91;4386548;32;20114;-79
2023/01/27 03:23:13;;;;;;;20.33;8.52;;;;;;;3.14;52.21;98551.69;4362927;32;20137;-79
2023/01/27 03:25:43;;;;;;;21.50;7.60;;;;;;;3.35;51.69;98545.84;4365199;32;20191;-79
2023/01/27 03:28:09;;;;;;;21.67;8.07;;;;;;;3.19;52.17;98541.12;4364984;32;20111;-79
2023/01/27 03:30:36;;;;;;;20.75;9.18;;;;;;;2.88;52.71;98544.63;4364972;32;20086;-79
2023/01/27 03:33:04;;;;;;;23.17;9.25;;;;;;;3.31;52.32;98538.19;4388766;32;20115;-78
2023/01/27 03:35:33;;;;;;;23.12;8.88;;;;;;;2.99;53.15;98544.28;4365233;32;20104;-78
2023/01/27 03:46:14;;;;;;;20.90;8.90;;;;;;;2.87;54.00;98540.28;4364989;32;20239;-80
2023/01/27 03:48:39;;;;;;;24.17;9.57;;;;;;;3.13;53.49;98539.56;4364989;32;20178;-83
2023/01/27 03:51:06;;;;;;;20.62;8.85;;;;;;;2.43;54.95;98532.75;4364886;32;20090;-81
2023/01/27 03:53:33;;;;;;;21.83;8.37;;;;;;;2.88;53.93;98534.19;4364785;32;20444;-81
2023/01/27 03:55:58;;;;;;;18.87;7.95;;;;;;;2.63;54.44;98524.47;4364869;32;20181;-81
2023/01/27 03:58:26;;;;;;;20.73;8.02;;;;;;;2.76;53.97;98530.16;4364878;32;20086;-81
2023/01/27 04:00:53;;;;;;;20.70;8.52;;;;;;;2.54;54.61;98524.69;4363898;32;20139;-81
2023/01/27 04:08:51;;;;;;;21.85;7.93;;;;;;;2.72;53.93;98516.41;4363837;32;20122;-82
2023/01/27 04:14:02;;;;;;;23.38;8.52;;;;;;;2.87;53.50;98517.72;4364837;32;20142;-83
2023/01/27 04:16:29;;;;;;;20.75;8.05;;;;;;;2.84;53.48;98512.63;4364904;32;20170;-83
2023/01/27 04:18:55;;;;;;;18.70;6.85;;;;;;;2.76;53.44;98517.16;4363543;32;20455;-83
2023/01/27 04:21:20;;;;;;;19.52;7.37;;;;;;;2.43;54.09;98511.12;4388432;32;20099;-83
2023/01/27 04:23:46;;;;;;;20.75;8.15;;;;;;;2.96;52.86;98514.03;4363601;32;20145;-83
2023/01/27 04:26:11;;;;;;;18.40;7.43;;;;;;;3.22;51.94;98512.41;4388472;32;20131;-83
2023/01/27 04:28:37;;;;;;;17.08;6.50;;;;;;;2.85;52.46;98516.91;4388615;32;20099;-83
2023/01/27 04:31:02;;;;;;;18.33;7.18;;;;;;;3.17;51.60;98515.16;4364682;32;20118;-81
2023/01/27 04:33:28;;;;;;;20.23;7.43;;;;;;;3.06;51.92;98510.25;4388027;32;20107;-80
2023/01/27 04:35:54;;;;;;;17.20;7.07;;;;;;;3.04;51.90;98509.44;4364633;32;20095;-81
2023/01/27 04:38:20;;;;;;;18.48;7.53;;;;;;;2.97;51.76;98505.31;4388346;32;20254;-81
2023/01/27 04:40:45;;;;;;;18.87;7.50;;;;;;;2.88;52.07;98516.84;4364715;32;20550;-81
2023/01/27 04:43:10;;;;;;;20.58;8.20;;;;;;;2.87;52.35;98516.88;4388258;32;20107;-81
2023/01/27 04:45:36;;;;;;;19.20;7.60;;;;;;;3.15;51.75;98515.19;4375771;32;20166;-81
2023/01/27 04:48:02;;;;;;;19.50;7.55;;;;;;;3.17;51.99;98519.50;4388569;32;20111;-81
2023/01/27 04:50:27;;;;;;;17.33;7.50;;;;;;;3.02;52.06;98518.19;4364761;32;20130;-82
2023/01/27 04:52:53;;;;;;;20.52;7.55;;;;;;;2.91;51.98;98521.09;4364505;32;20087;-81
2023/01/27 04:55:18;;;;;;;17.73;7.18;;;;;;;2.85;51.74;98526.47;4388181;32;20174;-81
2023/01/27 04:57:44;;;;;;;18.00;7.25;;;;;;;2.60;52.25;98524.53;4364455;32;20375;-81
2023/01/27 05:00:10;;;;;;;18.05;7.40;;;;;;;3.19;50.96;98528.97;4388256;32;20075;-82
2023/01/27 05:02:36;;;;;;;16.60;7.05;;;;;;;2.91;51.43;98531.50;4388015;32;20704;-81
2023/01/27 05:05:03;;;;;;;17.75;7.15;;;;;;;3.26;50.75;98529.66;4388263;32;20459;-81
2023/01/27 05:07:29;;;;;;;18.80;7.12;;;;;;;3.06;51.19;98522.41;4364622;32;20095;-81
2023/01/27 05:09:55;;;;;;;17.58;7.37;;;;;;;3.18;51.19;98540.28;4364348;32;20134;-82
2023/01/27 05:12:20;;;;;;;19.25;7.43;;;;;;;3.00;51.63;98531.25;4388376;32;20115;-81
2023/01/27 05:14:46;;;;;;;20.75;8.05;;;;;;;3.18;50.84;98529.87;4364342;32;20407;-80
2023/01/27 05:17:11;;;;;;;18.20;7.65;;;;;;;3.21;50.97;98529.78;4351037;32;20104;-81
2023/01/27 05:19:36;;;;;;;17.58;7.50;;;;;;;2.58;52.26;98535.88;4364517;32;20114;-79
2023/01/27 05:22:02;;;;;;;19.70;7.93;;;;;;;3.16;51.43;98526.44;4364449;32;20132;-79
2023/01/27 05:24:27;;;;;;;20.98;7.93;;;;;;;2.80;52.29;98531.81;4388294;32;20119;-81
2023/01/27 05:26:53;;;;;;;17.20;7.22;;;;;;;2.66;52.74;98532.16;4388239;32;20113;-81
2023/01/27 05:29:18;;;;;;;18.80;7.82;;;;;;;2.52;53.36;98523.88;4364474;32;20412;-81
2023/01/27 05:31:44;;;;;;;19.45;7.57;;;;;;;2.27;54.05;98526.25;4388223;32;20464;-81
2023/01/27 05:34:09;;;;;;;19.05;7.53;;;;;;;2.37;53.74;98530.31;4364282;32;20121;-81
2023/01/27 05:36:34;;;;;;;17.62;7.40;;;;;;;2.17;54.37;98529.09;4364417;32;20404;-81
2023/01/27 05:39:00;;;;;;;16.90;6.90;;;;;;;2.57;53.20;98527.22;4364575;32;20333;-82
2023/01/27 05:41:29;;;;;;;18.08;7.03;;;;;;;2.66;52.80;98526.12;4364352;32;20131;-81
2023/01/27 05:43:55;;;;;;;19.17;7.50;;;;;;;2.66;52.47;98528.72;4388223;32;20490;-81
2023/01/27 05:46:23;;;;;;;18.25;6.93;;;;;;;2.63;51.75;98529.66;4363580;32;20095;-82
2023/01/27 05:48:50;;;;;;;17.65;6.80;;;;;;;2.79;51.76;98526.66;4362881;32;20214;-81
2023/01/27 05:51:18;;;;;;;18.05;7.47;;;;;;;2.69;52.22;98537.28;4364025;32;20162;-81
2023/01/27 05:53:44;;;;;;;18.80;7.05;;;;;;;2.40;52.99;98530.25;4387823;32;20184;-81
2023/01/27 05:56:12;;;;;;;16.90;6.82;;;;;;;2.70;53.10;98527.72;4388031;32;20181;-81
2023/01/27 05:58:37;;;;;;;17.65;6.80;;;;;;;2.71;52.07;98534.66;4363966;32;20109;-81
2023/01/27 06:01:17;;;;;;;16.85;6.25;;;;;;;2.56;51.76;98533.31;4363956;32;20091;-81
2023/01/27 06:03:43;;;;;;;16.35;6.90;;;;;;;2.92;50.41;98530.63;4363858;32;20170;-82
2023/01/27 06:06:09;;;;;;;17.40;6.00;;;;;;;2.53;50.69;98530.78;4350318;32;20146;-82
2023/01/27 06:08:35;;;;;;;16.33;6.28;;;;;;;2.56;51.00;98531.56;4375023;32;20326;-82
2023/01/27 06:11:01;;;;;;;16.73;6.20;;;;;;;2.77;50.43;98531.03;4363895;32;20151;-82
2023/01/27 06:13:27;;;;;;;17.42;5.93;;;;;;;2.83;50.57;98526.50;4363796;32;20157;-82
2023/01/27 06:15:54;;;;;;;15.95;6.18;;;;;;;2.78;50.35;98523.16;4362662;32;20139;-82
2023/01/27 06:18:20;;;;;;;17.70;6.70;;;;;;;2.50;50.70;98526.50;4363680;32;20095;-82
2023/01/27 06:20:46;;;;;;;16.77;6.85;;;;;;;2.79;50.11;98521.44;4387543;32;20134;-82
2023/01/27 06:23:13;;;;;;;16.33;6.03;;;;;;;2.86;49.75;98520.34;4362547;32;20165;-82
2023/01/27 06:25:41;;;;;;;16.30;6.22;;;;;;;2.59;49.65;98524.56;4363746;32;20090;-81
2023/01/27 06:28:07;;;;;;;17.00;6.68;;;;;;;2.41;50.42;98523.31;4363606;32;20383;-82
2023/01/27 06:30:34;;;;;;;15.60;6.20;;;;;;;2.65;49.57;98512.25;4362456;32;20133;-81
2023/01/27 06:33:00;;;;;;;15.48;5.80;;;;;;;2.72;49.67;98520.75;4387409;32;20099;-82
2023/01/27 06:35:27;;;;;;;16.17;5.90;;;;;;;2.85;49.88;98521.28;4363354;32;20102;-79
2023/01/27 06:37:52;;;;;;;15.70;5.87;;;;;;;2.68;50.09;98522.56;4362366;32;20098;-83
2023/01/27 06:40:18;;;;;;;17.50;6.60;;;;;;;3.19;48.15;98523.78;4363497;32;20107;-82
2023/01/27 06:42:44;;;;;;;16.75;6.05;;;;;;;2.63;49.28;98527.06;4363399;32;20138;-84
2023/01/27 06:45:10;;;;;;;16.02;5.57;;;;;;;2.66;49.50;98526.97;4363426;32;20110;-83
2023/01/27 06:47:37;;;;;;;18.52;6.00;;;;;;;2.93;48.98;98529.72;4363394;32;20133;-83
2023/01/27 06:50:03;;;;;;;15.55;6.00;;;;;;;3.06;48.59;98523.25;4363542;32;20103;-83
2023/01/27 06:52:28;;;;;;;16.48;5.62;;;;;;;3.02;48.18;98529.47;4386855;32;20099;-83
2023/01/27 06:54:53;;;;;;;14.82;5.20;;;;;;;2.87;48.11;98530.72;4363132;32;20108;-83
2023/01/27 06:57:19;;;;;;;16.35;6.62;;;;;;;3.18;47.68;98536.81;4364519;32;20424;-83
2023/01/27 06:59:44;;;;;;;14.18;5.45;;;;;;;2.84;47.94;98533.44;4365186;32;20118;-82
2023/01/27 07:02:11;;;;;;;15.32;5.55;;;;;;;3.31;47.10;98520.81;4365098;32;20142;-82
2023/01/27 07:04:36;;;;;;;13.57;5.57;;;;;;;3.37;46.72;98530.19;4389113;32;20455;-81
2023/01/27 07:07:02;;;;;;;16.92;5.50;;;;;;;3.25;46.83;98533.16;4389084;32;20103;-81
2023/01/27 07:09:27;;;;;;;14.00;5.43;;;;;;;3.16;46.96;98531.66;4365303;32;20092;-83
2023/01/27 07:11:53;;;;;;;15.93;5.53;;;;;;;3.32;46.59;98530.34;4365198;32;20156;-82
2023/01/27 07:14:18;;;;;;;15.30;5.32;;;;;;;3.20;47.28;98532.44;4365055;32;20093;-80
2023/01/27 07:16:44;;;;;;;15.77;5.32;;;;;;;3.35;47.25;98521.56;4365241;32;20113;-81
2023/01/27 07:19:11;;;;;;;17.05;5.60;;;;;;;3.28;47.32;98527.84;4365143;32;20114;-83
2023/01/27 07:21:36;;;;;;;15.25;5.70;;;;;;;2.88;48.07;98532.44;4365254;32;20133;-80
2023/01/27 07:24:02;;;;;;;16.52;6.30;;;;;;;3.10;47.87;98526.62;4365165;32;20443;-83
2023/01/27 07:26:28;;;;;;;16.27;6.00;;;;;;;2.89;48.23;98541.94;4365026;32;20088;-88
2023/01/27 07:28:54;;;;;;;17.83;5.57;;;;;;;2.87;48.68;98542.88;4363969;32;20099;-88
2023/01/27 07:31:20;;;;;;;18.42;6.05;;;;;;;2.81;48.85;98546.50;4364462;32;20479;-83
2023/01/27 07:33:45;;;;;;;16.37;5.93;;;;;;;3.09;48.47;98546.63;4375692;32;20130;-85
2023/01/27 07:36:11;;;;;;;17.60;5.97;;;;;;;3.27;47.38;98540.00;4364503;32;20348;-84
2023/01/27 07:38:37;;;;;;;17.67;6.60;;;;;;;3.57;47.06;98545.22;4363246;32;20475;-85
2023/01/27 07:41:04;;;;;;;15.35;5.87;;;;;;;3.57;47.08;98545.22;4363295;32;20134;-84
2023/01/27 07:43:31;;;;;;;17.07;6.20;;;;;;;3.70;46.81;98537.87;4364757;32;20082;-86
2023/01/27 07:45:56;;;;;;;16.90;6.40;;;;;;;3.39;47.34;98537.97;4364310;32;20463;-84
2023/01/27 07:48:22;;;;;;;17.15;6.32;;;;;;;4.05;46.25;98531.56;4363202;32;20114;-85
2023/01/27 07:50:47;;;;;;;16.95;6.10;;;;;;;4.19;45.73;98540.69;4364317;32;20095;-85
2023/01/27 07:53:13;;;;;;;14.90;6.45;;;;;;;3.63;46.36;98520.72;4364342;32;20095;-87
2023/01/27 07:55:38;;;;;;;16.37;6.60;;;;;;;3.99;45.73;98523.09;4364280;32;20124;-87
2023/01/27 07:58:04;;;;;;;16.58;6.20;;;;;;;3.94;45.76;98523.25;4364466;32;20166;-89
2023/01/27 08:00:30;;;;;;;21.80;6.40;;;;;;;3.83;46.25;98520.97;4363991;32;20190;-89
2023/01/27 08:02:56;;;;;;;15.50;6.22;;;;;;;3.45;47.51;98528.19;4388971;32;20103;-87
2023/01/27 08:05:22;;;;;;;16.62;6.22;;;;;;;3.73;46.25;98523.00;4365207;32;20432;-86
2023/01/27 08:07:49;;;;;;;17.42;5.93;;;;;;;3.67;46.20;98525.81;4364850;32;20122;-87
2023/01/27 08:10:15;;;;;;;15.13;5.47;;;;;;;4.12;46.13;98529.63;4364973;32;20129;-88
2023/01/27 08:12:42;;;;;;;15.00;5.60;;;;;;;4.03;45.53;98530.75;4364894;32;20121;-87
2023/01/27 08:15:08;;;;;;;17.75;6.68;;;;;;;3.83;45.78;98534.00;4388517;32;20079;-86
2023/01/27 08:17:33;;;;;;;16.95;5.82;;;;;;;4.19;45.25;98538.06;4364696;32;20181;-87
2023/01/27 08:19:59;;;;;;;15.60;6.35;;;;;;;3.81;47.62;98534.97;4374859;32;20189;-84
2023/01/27 08:22:24;;;;;;;14.60;5.72;;;;;;;4.26;46.02;98537.81;4359548;32;20219;-84
2023/01/27 08:24:50;;;;;;;14.87;5.20;;;;;;;4.24;44.81;98531.81;4358936;32;20115;-84
2023/01/27 08:27:16;;;;;;;17.20;5.43;;;;;;;4.22;45.11;98537.97;4360645;32;20204;-85
2023/01/27 08:29:42;;;;;;;14.98;6.10;;;;;;;4.24;44.99;98533.56;4359986;32;20098;-84
2023/01/27 08:32:09;;;;;;;14.77;6.03;;;;;;;4.09;45.19;98533.16;4359309;32;20153;-84
2023/01/27 08:34:34;;;;;;;16.13;5.70;;;;;;;4.08;45.39;98546.25;4359964;32;20088;-84
2023/01/27 08:37:00;;;;;;;16.55;5.72;;;;;;;3.82;45.80;98537.50;4363978;32;20123;-86
2023/01/27 08:39:25;;;;;;;13.32;5.12;;;;;;;4.01;45.39;98534.31;4363124;32;20162;-82
2023/01/27 08:41:51;;;;;;;13.62;5.90;;;;;;;3.78;46.07;98542.84;4359485;32;20121;-87
2023/01/27 08:44:16;;;;;;;18.15;5.95;;;;;;;3.97;45.54;98546.59;4362241;32;20129;-88
2023/01/27 08:46:42;;;;;;;15.55;5.95;;;;;;;4.29;45.13;98550.78;4360011;32;20103;-89
2023/01/27 08:49:07;;;;;;;14.73;5.65;;;;;;;4.11;44.62;98543.53;4368189;32;20300;-88
2023/01/27 08:51:33;;;;;;;13.70;5.20;;;;;;;4.16;45.19;98551.22;4360068;32;20884;-85
2023/01/27 08:53:58;;;;;;;14.93;5.80;;;;;;;4.08;45.21;98543.66;4358258;32;20121;-85
2023/01/27 08:56:24;;;;;;;14.57;5.10;;;;;;;3.90;44.92;98553.75;4360937;32;20122;-86
2023/01/27 08:58:51;;;;;;;14.98;6.18;;;;;;;4.45;44.35;98547.66;4358284;32;20130;-87
2023/01/27 09:01:17;;;;;;;16.52;5.90;;;;;;;3.98;45.63;98553.53;4360890;32;20122;-86
2023/01/27 09:03:43;;;;;;;14.48;5.30;;;;;;;4.21;45.25;98550.19;4358735;32;20099;-87
2023/01/27 09:06:12;;;;;;;15.00;5.10;;;;;;;4.33;43.32;98554.97;4375238;32;20369;-85
2023/01/27 09:08:39;;;;;;;15.23;5.40;;;;;;;4.43;43.03;98549.47;4370775;32;20119;-86
2023/01/27 09:11:13;;;;;;;15.40;5.65;;;;;;;4.00;44.67;98554.31;4373702;32;20099;-87
2023/01/27 09:13:38;;;;;;;12.93;4.40;;;;;;;4.07;44.63;98565.38;4361933;32;20937;-84
2023/01/27 09:16:08;;;;;;;18.67;5.62;;;;;;;4.45;43.15;98558.09;4368492;32;20467;-83
2023/01/27 09:18:33;;;;;;;15.82;5.22;;;;;;;4.90;42.49;98552.19;4360592;32;20146;-82
2023/01/27 09:21:04;;;;;;;14.18;5.18;;;;;;;5.15;42.60;98553.91;4371104;32;20099;-84
2023/01/27 09:23:29;;;;;;;13.98;5.15;;;;;;;4.78;43.05;98558.69;4367721;32;20121;-84
2023/01/27 09:25:54;;;;;;;14.98;5.40;;;;;;;5.10;42.29;98552.34;4364397;32;20123;-84
2023/01/27 09:28:20;;;;;;;15.32;5.50;;;;;;;4.59;43.04;98557.62;4360620;32;20231;-84
2023/01/27 09:30:45;;;;;;;12.45;4.37;;;;;;;4.19;44.34;98574.56;4362987;32;20102;-84
2023/01/27 09:33:13;;;;;;;11.02;4.12;;;;;;;4.87;43.38;98560.13;4364556;32;20123;-84
2023/01/27 09:35:43;;;;;;;13.55;4.47;;;;;;;4.59;43.66;98562.84;4361063;32;20079;-82
2023/01/27 09:38:09;;;;;;;11.35;3.80;;;;;;;4.51;43.81;98569.16;4361544;32;20106;-84
2023/01/27 09:40:40;;;;;;;14.55;5.18;;;;;;;4.50;44.49;98561.37;4363024;32;20154;-83
2023/01/27 09:43:46;;;;;;;12.80;4.85;;;;;;;4.06;44.72;98572.38;4373792;32;20103;-83
2023/01/27 09:46:21;;;;;;;13.68;4.68;;;;;;;4.16;44.70;98567.72;4364912;32;20098;-82
2023/01/27 09:49:19;;;;;;;14.30;4.90;;;;;;;4.46;45.36;98563.25;4365115;32;20127;-84
2023/01/27 09:52:28;;;;;;;13.60;3.92;;;;;;;4.59;45.30;98573.28;4362402;32;20133;-83
2023/01/27 09:54:56;;;;;;;14.48;4.65;;;;;;;4.57;46.07;98562.88;4361161;32;20098;-83
2023/01/27 09:57:52;;;;;;;14.85;4.82;;;;;;;3.98;47.77;98565.69;4362804;32;20118;-75
2023/01/27 10:00:42;;;;;;;12.75;4.82;;;;;;;4.36;46.04;98564.44;4358478;32;20183;-83
2023/01/27 10:03:26;;;;;;;12.60;4.65;;;;;;;4.27;46.48;98570.00;4367603;32;20154;-82
2023/01/27 10:06:19;;;;;;;14.98;5.25;;;;;;;4.28;47.16;98567.31;4377618;32;20170;-83
2023/01/27 10:09:21;;;;;;;13.25;4.93;;;;;;;4.11;47.79;98557.44;4376488;32;20127;-83
2023/01/27 10:12:09;;;;;;;13.98;4.65;;;;;;;4.18;48.48;98563.31;4367701;32;20099;-83
2023/01/27 10:14:55;;;;;;;14.55;4.60;;;;;;;4.21;48.58;98555.41;4361343;32;20484;-82
2023/01/27 10:17:27;;;;;;;13.05;4.87;;;;;;;3.96;50.37;98586.59;4359332;32;20126;-82
2023/01/27 10:20:07;;;;;;;11.63;4.68;;;;;;;3.90;50.66;98560.69;4360658;32;20204;-89
2023/01/27 10:22:37;;;;;;;15.13;5.40;;;;;;;4.30;50.13;98559.44;4364932;32;20402;-86
2023/01/27 10:25:24;;;;;;;16.23;5.00;;;;;;;3.97;50.63;98562.22;4369573;32;20170;-92
2023/01/27 10:27:56;;;;;;;13.88;4.97;;;;;;;4.45;50.50;98556.31;4363804;32;20086;-82
2023/01/27 10:30:35;;;;;;;14.18;5.43;;;;;;;4.36;50.75;98554.00;4358682;32;20826;-81
2023/01/27 10:33:16;;;;;;;14.32;5.20;;;;;;;4.02;51.93;98562.06;4363058;32;20466;-82
2023/01/27 10:35:45;;;;;;;14.90;5.37;;;;;;;4.27;51.54;98554.34;4362349;32;20509;-84
2023/01/27 10:38:41;;;;;;;15.82;5.60;;;;;;;4.82;50.92;98555.06;4369397;32;20121;-84
2023/01/27 10:41:15;;;;;;;15.35;5.00;;;;;;;4.47;51.56;98562.34;4365960;32;20512;-81
2023/01/27 10:43:54;;;;;;;15.05;5.30;;;;;;;4.96;50.25;98548.50;4365213;32;20270;-81
2023/01/27 10:46:20;;;;;;;14.57;4.95;;;;;;;4.58;50.70;98558.50;4370091;32;20170;-81
2023/01/27 10:48:59;;;;;;;16.40;5.10;;;;;;;4.75;50.30;98550.94;4359948;32;20102;-85
2023/01/27 10:51:34;;;;;;;13.43;4.72;;;;;;;4.37;50.98;98553.13;4363617;32;20125;-83
2023/01/27 10:54:12;;;;;;;15.38;5.22;;;;;;;4.09;52.19;98548.78;4364833;32;20110;-83
2023/01/27 10:56:41;;;;;;;12.75;4.55;;;;;;;4.63;50.95;98548.78;4346488;32;20545;-82
2023/01/27 10:59:27;;;;;;;13.23;4.65;;;;;;;3.58;53.53;98553.91;4377317;32;20143;-82
2023/01/27 11:02:03;;;;;;;13.38;4.95;;;;;;;4.27;52.14;98546.53;4359174;32;20745;-85
2023/01/27 11:04:36;;;;;;;14.93;5.03;;;;;;;3.72;52.87;98543.91;4376473;32;20159;-84
2023/01/27 11:07:03;;;;;;;13.10;4.68;;;;;;;4.29;52.05;98535.13;4374497;32;20095;-84
2023/01/27 11:09:46;;;;;;;13.80;5.05;;;;;;;4.19;51.78;98544.16;4364723;32;20490;-82
2023/01/27 11:12:13;;;;;;;13.48;4.60;;;;;;;4.29;52.16;98536.88;4370242;32;20151;-83
2023/01/27 11:14:49;;;;;;;12.52;4.95;;;;;;;4.23;52.11;98535.34;4370366;32;20111;-84
2023/01/27 11:17:19;;;;;;;12.70;4.37;;;;;;;4.78;51.01;98524.75;4377807;32;20091;-83
2023/01/27 11:20:05;;;;;;;13.50;4.95;;;;;;;4.34;51.69;98529.75;4361470;32;20091;-83
2023/01/27 11:23:03;;;;;;;13.73;5.05;;;;;;;4.81;51.14;98523.78;4371010;32;20114;-81
2023/01/27 11:25:55;;;;;;;14.52;5.10;;;;;;;4.76;52.19;98521.34;4361349;32;20430;-83
2023/01/27 11:28:40;;;;;;;13.55;5.05;;;;;;;4.62;52.67;98510.56;4360960;32;20107;-83
2023/01/27 11:31:12;;;;;;;13.20;4.82;;;;;;;3.98;54.56;98531.78;4365518;32;20392;-83
2023/01/27 11:33:56;;;;;;;13.40;4.68;;;;;;;4.66;52.80;98514.75;4370284;32;20107;-84
2023/01/27 11:36:25;;;;;;;13.35;4.82;;;;;;;4.08;54.42;98515.81;4376618;32;20094;-81
2023/01/27 11:38:52;;;;;;;13.70;5.15;;;;;;;4.57;53.53;98518.53;4370031;32;20098;-83
2023/01/27 11:41:18;;;;;;;15.77;5.10;;;;;;;4.69;53.20;98510.28;4366717;32;20118;-82
2023/01/27 11:43:43;;;;;;;13.73;5.00;;;;;;;4.71;53.24;98507.59;4373370;32;20115;-81
2023/01/27 11:46:14;;;;;;;11.32;4.43;;;;;;;4.91;52.63;98501.69;4360083;32;20185;-82
2023/01/27 11:48:47;;;;;;;15.07;5.25;;;;;;;4.28;53.94;98504.72;4361148;32;20103;-81
2023/01/27 11:51:21;;;;;;;14.15;4.90;;;;;;;4.70;53.70;98498.09;4368329;32;20083;-81
2023/01/27 11:54:00;;;;;;;13.90;4.20;;;;;;;4.89;53.06;98488.69;4363244;32;20107;-81
2023/01/27 11:56:26;;;;;;;14.55;5.53;;;;;;;4.76;53.63;98491.81;4378010;32;20162;-81
2023/01/27 11:59:03;;;;;;;13.90;5.55;;;;;;;4.99;52.86;98486.59;4359709;32;20142;-81
2023/01/27 12:01:53;;;;;;;15.55;5.30;;;;;;;5.00;53.17;98482.22;4371071;32;20159;-81
2023/01/27 12:04:30;;;;;;;14.87;5.03;;;;;;;5.24;52.23;98472.62;4365015;32;20114;-81
2023/01/27 12:07:01;;;;;;;13.13;4.55;;;;;;;5.22;52.76;98472.69;4359962;32;20103;-81
2023/01/27 12:09:38;;;;;;;12.27;5.37;;;;;;;4.87;53.13;98467.03;4363619;32;20165;-81
2023/01/27 12:12:19;;;;;;;15.10;5.60;;;;;;;4.49;54.14;98471.00;4372744;32;20154;-81